イースター島 の空港の天気 - METARとTAF

マタベリ国際空港 ( SCIP / IPC ) - チリ イースター島
飛行場実況気象(Metar)
観測時間08/13 22:00 EAT (08/14 04:00 UTC)
風向・風速東 3m/s
視程10km以上
天気現象
少しの雲 雲底高度 520m
気温18℃
湿度83%
気圧1019hPa
METARSCIP 140400Z 09006KT 9999 FEW017 18/15 Q1019 NOSIG
過去の天気等 Google飛行場航空写真 Wunderground天気予報

過去48時間のMETAR

飛行場予報(TAF)
発表時間: 8/13 16:01 EAT (8/13 22:01 UTC)
予報対象時間: 13日18時 EAT ~ 14日18時 EAT
風向・風速東 5m/s
視程10km以上
少しの雲 雲底高度 760m
14日0時 EAT ~ 14日3時 EAT に一時的に
風向・風速東北東 3m/s
視程7000m
天気現象しゅう雨
全天の4割程度の雲 雲底高度 460m
全天の8割程度の雲 雲底高度 760m
14日6時 EAT ~ 14日12時 EAT に一時的に
風向・風速東北東 6m/s
視程5000m
天気現象しゅう雨
全天の4割程度の雲 雲底高度 370m
全天の8割程度の雲 雲底高度 610m
14日16時 EAT ~ 14日18時 EAT に徐々に
風向・風速東 9m/s
視程4000m
天気現象しゅう雨
全天の4割程度の雲 雲底高度 370m
全天の8割程度の雲 雲底高度 610m
TAF SCIP 132201Z 1400/1500 10010KT 9999 FEW025 TN14/1412Z TX22/1419Z
TEMPO 1406/1409 07005KT 7000 SHRA SCT015 BKN025
TEMPO 1412/1418 07012KT 5000 SHRA SCT012 BKN020
BECMG 1422/1500 09017KT 4000 SHRA SCT012 BKN020